sensor_id;sensor_type;location;lat;lon;timestamp;temperature;humidity
43581;DHT22;29175;51.030;4.606;2022-09-25T00:01:38;13.90;99.90
43581;DHT22;29175;51.030;4.606;2022-09-25T00:04:03;13.90;99.90
43581;DHT22;29175;51.030;4.606;2022-09-25T00:06:30;14.00;99.90
43581;DHT22;29175;51.030;4.606;2022-09-25T00:08:58;14.10;99.90
43581;DHT22;29175;51.030;4.606;2022-09-25T00:11:29;14.10;99.90
43581;DHT22;29175;51.030;4.606;2022-09-25T00:13:57;14.10;99.90
43581;DHT22;29175;51.030;4.606;2022-09-25T00:16:26;14.10;99.90
43581;DHT22;29175;51.030;4.606;2022-09-25T00:18:54;14.20;99.90
43581;DHT22;29175;51.030;4.606;2022-09-25T00:21:38;14.30;99.90
43581;DHT22;29175;51.030;4.606;2022-09-25T00:24:07;14.30;99.90
43581;DHT22;29175;51.030;4.606;2022-09-25T00:26:39;14.00;99.90
43581;DHT22;29175;51.030;4.606;2022-09-25T00:29:06;14.10;99.90
43581;DHT22;29175;51.030;4.606;2022-09-25T00:31:33;14.10;99.90
43581;DHT22;29175;51.030;4.606;2022-09-25T00:34:01;14.20;99.90
43581;DHT22;29175;51.030;4.606;2022-09-25T00:36:28;14.10;99.90
43581;DHT22;29175;51.030;4.606;2022-09-25T00:38:53;14.00;99.90
43581;DHT22;29175;51.030;4.606;2022-09-25T00:41:22;14.10;99.90
43581;DHT22;29175;51.030;4.606;2022-09-25T00:43:53;13.90;99.90
43581;DHT22;29175;51.030;4.606;2022-09-25T00:51:59;13.80;99.90
43581;DHT22;29175;51.030;4.606;2022-09-25T00:54:33;13.90;99.90
43581;DHT22;29175;51.030;4.606;2022-09-25T00:57:02;13.90;99.90
43581;DHT22;29175;51.030;4.606;2022-09-25T00:59:32;13.80;99.90
43581;DHT22;29175;51.030;4.606;2022-09-25T01:01:59;13.80;99.90
43581;DHT22;29175;51.030;4.606;2022-09-25T01:04:28;13.70;99.90
43581;DHT22;29175;51.030;4.606;2022-09-25T01:06:55;13.60;99.90
43581;DHT22;29175;51.030;4.606;2022-09-25T01:09:22;13.60;99.90
43581;DHT22;29175;51.030;4.606;2022-09-25T01:11:48;13.70;99.90
43581;DHT22;29175;51.030;4.606;2022-09-25T01:14:14;13.80;99.90
43581;DHT22;29175;51.030;4.606;2022-09-25T01:16:59;13.70;99.90
43581;DHT22;29175;51.030;4.606;2022-09-25T01:25:45;13.50;99.90
43581;DHT22;29175;51.030;4.606;2022-09-25T01:34:01;13.30;99.90
43581;DHT22;29175;51.030;4.606;2022-09-25T01:36:40;13.20;99.90
43581;DHT22;29175;51.030;4.606;2022-09-25T01:39:20;13.10;99.90
43581;DHT22;29175;51.030;4.606;2022-09-25T01:42:09;13.10;99.90
43581;DHT22;29175;51.030;4.606;2022-09-25T01:44:48;13.20;99.90
43581;DHT22;29175;51.030;4.606;2022-09-25T01:47:20;13.20;99.90
43581;DHT22;29175;51.030;4.606;2022-09-25T01:49:56;13.30;99.90
43581;DHT22;29175;51.030;4.606;2022-09-25T01:52:27;13.30;99.90
43581;DHT22;29175;51.030;4.606;2022-09-25T01:55:07;13.20;99.90
43581;DHT22;29175;51.030;4.606;2022-09-25T01:57:43;13.10;99.90
43581;DHT22;29175;51.030;4.606;2022-09-25T02:00:17;12.80;99.90
43581;DHT22;29175;51.030;4.606;2022-09-25T02:02:55;12.80;99.90
43581;DHT22;29175;51.030;4.606;2022-09-25T02:05:29;12.80;99.90
43581;DHT22;29175;51.030;4.606;2022-09-25T02:08:00;12.80;99.90
43581;DHT22;29175;51.030;4.606;2022-09-25T02:10:36;12.90;99.90
43581;DHT22;29175;51.030;4.606;2022-09-25T02:13:09;12.90;99.90
43581;DHT22;29175;51.030;4.606;2022-09-25T02:15:42;12.90;99.90
43581;DHT22;29175;51.030;4.606;2022-09-25T02:18:11;13.00;99.90
43581;DHT22;29175;51.030;4.606;2022-09-25T02:21:13;12.90;99.90
43581;DHT22;29175;51.030;4.606;2022-09-25T02:26:55;12.90;99.90
43581;DHT22;29175;51.030;4.606;2022-09-25T02:29:21;12.90;99.90
43581;DHT22;29175;51.030;4.606;2022-09-25T02:31:53;12.80;99.90
43581;DHT22;29175;51.030;4.606;2022-09-25T02:34:21;12.80;99.90
43581;DHT22;29175;51.030;4.606;2022-09-25T02:36:47;12.60;99.90
43581;DHT22;29175;51.030;4.606;2022-09-25T02:39:14;12.70;99.90
43581;DHT22;29175;51.030;4.606;2022-09-25T02:46:48;12.80;99.90
43581;DHT22;29175;51.030;4.606;2022-09-25T02:49:33;12.80;99.90
43581;DHT22;29175;51.030;4.606;2022-09-25T02:52:09;12.80;99.90
43581;DHT22;29175;51.030;4.606;2022-09-25T02:54:53;12.80;99.90
43581;DHT22;29175;51.030;4.606;2022-09-25T03:00:18;12.70;99.90
43581;DHT22;29175;51.030;4.606;2022-09-25T03:02:56;12.60;99.90
43581;DHT22;29175;51.030;4.606;2022-09-25T03:05:24;12.50;99.90
43581;DHT22;29175;51.030;4.606;2022-09-25T03:07:51;12.40;99.90
43581;DHT22;29175;51.030;4.606;2022-09-25T03:10:36;12.50;99.90
43581;DHT22;29175;51.030;4.606;2022-09-25T03:13:19;12.40;99.90
43581;DHT22;29175;51.030;4.606;2022-09-25T03:15:49;12.50;99.90
43581;DHT22;29175;51.030;4.606;2022-09-25T03:18:16;12.40;99.90
43581;DHT22;29175;51.030;4.606;2022-09-25T03:20:43;12.40;99.90
43581;DHT22;29175;51.030;4.606;2022-09-25T03:23:09;12.40;99.90
43581;DHT22;29175;51.030;4.606;2022-09-25T03:25:37;12.50;99.90
43581;DHT22;29175;51.030;4.606;2022-09-25T03:28:13;12.40;99.90
43581;DHT22;29175;51.030;4.606;2022-09-25T03:30:40;12.40;99.90
43581;DHT22;29175;51.030;4.606;2022-09-25T03:33:09;12.30;99.90
43581;DHT22;29175;51.030;4.606;2022-09-25T03:35:38;12.30;99.90
43581;DHT22;29175;51.030;4.606;2022-09-25T03:38:04;12.20;99.90
43581;DHT22;29175;51.030;4.606;2022-09-25T03:40:30;12.10;99.90
43581;DHT22;29175;51.030;4.606;2022-09-25T03:42:55;12.10;99.90
43581;DHT22;29175;51.030;4.606;2022-09-25T03:45:21;12.10;99.90
43581;DHT22;29175;51.030;4.606;2022-09-25T03:47:48;12.10;99.90
43581;DHT22;29175;51.030;4.606;2022-09-25T03:50:14;12.00;99.90
43581;DHT22;29175;51.030;4.606;2022-09-25T03:52:40;12.00;99.90
43581;DHT22;29175;51.030;4.606;2022-09-25T03:55:06;12.00;99.90
43581;DHT22;29175;51.030;4.606;2022-09-25T03:57:32;11.90;99.90
43581;DHT22;29175;51.030;4.606;2022-09-25T03:59:58;12.00;99.90
43581;DHT22;29175;51.030;4.606;2022-09-25T04:02:29;11.90;99.90
43581;DHT22;29175;51.030;4.606;2022-09-25T04:04:54;11.90;99.90
43581;DHT22;29175;51.030;4.606;2022-09-25T04:07:21;11.90;99.90
43581;DHT22;29175;51.030;4.606;2022-09-25T04:09:47;11.90;99.90
43581;DHT22;29175;51.030;4.606;2022-09-25T04:12:12;11.80;99.90
43581;DHT22;29175;51.030;4.606;2022-09-25T04:14:39;11.80;99.90
43581;DHT22;29175;51.030;4.606;2022-09-25T04:17:06;11.80;99.90
43581;DHT22;29175;51.030;4.606;2022-09-25T04:19:32;11.70;99.90
43581;DHT22;29175;51.030;4.606;2022-09-25T04:21:59;11.80;99.90
43581;DHT22;29175;51.030;4.606;2022-09-25T04:24:24;11.70;99.90
43581;DHT22;29175;51.030;4.606;2022-09-25T04:27:08;11.70;99.90
43581;DHT22;29175;51.030;4.606;2022-09-25T04:29:35;11.60;99.90
43581;DHT22;29175;51.030;4.606;2022-09-25T04:32:01;11.60;99.90
43581;DHT22;29175;51.030;4.606;2022-09-25T04:34:48;11.50;99.90
43581;DHT22;29175;51.030;4.606;2022-09-25T04:37:13;11.60;99.90
43581;DHT22;29175;51.030;4.606;2022-09-25T04:39:40;11.50;99.90
43581;DHT22;29175;51.030;4.606;2022-09-25T04:42:05;11.50;99.90
43581;DHT22;29175;51.030;4.606;2022-09-25T04:44:31;11.50;99.90
43581;DHT22;29175;51.030;4.606;2022-09-25T04:46:57;11.50;99.90
43581;DHT22;29175;51.030;4.606;2022-09-25T04:49:23;11.50;99.90
43581;DHT22;29175;51.030;4.606;2022-09-25T04:51:49;11.60;99.90
43581;DHT22;29175;51.030;4.606;2022-09-25T04:54:16;11.50;99.90
43581;DHT22;29175;51.030;4.606;2022-09-25T04:56:42;11.40;99.90
43581;DHT22;29175;51.030;4.606;2022-09-25T04:59:08;11.50;99.90
43581;DHT22;29175;51.030;4.606;2022-09-25T05:01:36;11.40;99.90
43581;DHT22;29175;51.030;4.606;2022-09-25T05:04:03;11.40;99.90
43581;DHT22;29175;51.030;4.606;2022-09-25T05:06:30;11.40;99.90
43581;DHT22;29175;51.030;4.606;2022-09-25T05:08:55;11.40;99.90
43581;DHT22;29175;51.030;4.606;2022-09-25T05:11:22;11.30;99.90
43581;DHT22;29175;51.030;4.606;2022-09-25T05:13:51;11.30;99.90
43581;DHT22;29175;51.030;4.606;2022-09-25T05:16:17;11.30;99.90
43581;DHT22;29175;51.030;4.606;2022-09-25T05:18:44;11.30;99.90
43581;DHT22;29175;51.030;4.606;2022-09-25T05:21:10;11.30;99.90
43581;DHT22;29175;51.030;4.606;2022-09-25T05:23:36;11.30;99.90
43581;DHT22;29175;51.030;4.606;2022-09-25T05:26:02;11.30;99.90
43581;DHT22;29175;51.030;4.606;2022-09-25T05:28:29;11.20;99.90
43581;DHT22;29175;51.030;4.606;2022-09-25T05:30:58;11.20;99.90
43581;DHT22;29175;51.030;4.606;2022-09-25T05:33:27;11.10;99.90
43581;DHT22;29175;51.030;4.606;2022-09-25T05:35:53;11.10;99.90
43581;DHT22;29175;51.030;4.606;2022-09-25T05:38:19;11.10;99.90
43581;DHT22;29175;51.030;4.606;2022-09-25T05:40:45;11.20;99.90
43581;DHT22;29175;51.030;4.606;2022-09-25T05:43:10;11.10;99.90
43581;DHT22;29175;51.030;4.606;2022-09-25T05:45:39;11.20;99.90
43581;DHT22;29175;51.030;4.606;2022-09-25T05:48:08;11.20;99.90
43581;DHT22;29175;51.030;4.606;2022-09-25T05:50:34;11.20;99.90
43581;DHT22;29175;51.030;4.606;2022-09-25T05:53:02;11.10;99.90
43581;DHT22;29175;51.030;4.606;2022-09-25T05:55:29;11.10;99.90
43581;DHT22;29175;51.030;4.606;2022-09-25T05:58:02;11.10;99.90
43581;DHT22;29175;51.030;4.606;2022-09-25T06:00:29;11.10;99.90
43581;DHT22;29175;51.030;4.606;2022-09-25T06:02:57;11.10;99.90
43581;DHT22;29175;51.030;4.606;2022-09-25T06:05:23;11.10;99.90
43581;DHT22;29175;51.030;4.606;2022-09-25T06:07:53;11.20;99.90
43581;DHT22;29175;51.030;4.606;2022-09-25T06:10:20;11.20;99.90
43581;DHT22;29175;51.030;4.606;2022-09-25T06:12:45;11.20;99.90
43581;DHT22;29175;51.030;4.606;2022-09-25T06:15:11;11.10;99.90
43581;DHT22;29175;51.030;4.606;2022-09-25T06:17:37;11.20;99.90
43581;DHT22;29175;51.030;4.606;2022-09-25T06:20:03;11.20;99.90
43581;DHT22;29175;51.030;4.606;2022-09-25T06:22:29;11.30;99.90
43581;DHT22;29175;51.030;4.606;2022-09-25T06:24:55;11.50;99.90
43581;DHT22;29175;51.030;4.606;2022-09-25T06:27:20;11.80;99.90
43581;DHT22;29175;51.030;4.606;2022-09-25T06:29:46;12.10;99.90
43581;DHT22;29175;51.030;4.606;2022-09-25T06:32:12;12.60;99.90
43581;DHT22;29175;51.030;4.606;2022-09-25T06:34:37;13.20;99.90
43581;DHT22;29175;51.030;4.606;2022-09-25T06:37:03;13.30;99.90
43581;DHT22;29175;51.030;4.606;2022-09-25T06:39:29;13.10;99.90
43581;DHT22;29175;51.030;4.606;2022-09-25T06:41:58;12.90;99.90
43581;DHT22;29175;51.030;4.606;2022-09-25T06:44:24;12.80;99.90
43581;DHT22;29175;51.030;4.606;2022-09-25T06:46:50;12.70;99.90
43581;DHT22;29175;51.030;4.606;2022-09-25T06:49:19;12.50;99.90
43581;DHT22;29175;51.030;4.606;2022-09-25T06:51:44;12.40;99.90
43581;DHT22;29175;51.030;4.606;2022-09-25T06:54:11;12.40;99.90
43581;DHT22;29175;51.030;4.606;2022-09-25T06:56:37;12.50;99.90
43581;DHT22;29175;51.030;4.606;2022-09-25T06:59:03;12.50;99.90
43581;DHT22;29175;51.030;4.606;2022-09-25T07:01:29;12.50;99.90
43581;DHT22;29175;51.030;4.606;2022-09-25T07:03:55;12.60;99.90
43581;DHT22;29175;51.030;4.606;2022-09-25T07:06:23;12.60;99.90
43581;DHT22;29175;51.030;4.606;2022-09-25T07:08:51;12.60;99.90
43581;DHT22;29175;51.030;4.606;2022-09-25T07:11:19;12.70;99.90
43581;DHT22;29175;51.030;4.606;2022-09-25T07:13:45;12.80;99.90
43581;DHT22;29175;51.030;4.606;2022-09-25T07:16:14;13.10;99.90
43581;DHT22;29175;51.030;4.606;2022-09-25T07:18:40;13.80;99.90
43581;DHT22;29175;51.030;4.606;2022-09-25T07:21:16;15.00;99.90
43581;DHT22;29175;51.030;4.606;2022-09-25T07:23:43;16.10;99.90
43581;DHT22;29175;51.030;4.606;2022-09-25T07:26:11;16.10;99.90
43581;DHT22;29175;51.030;4.606;2022-09-25T07:28:39;15.90;99.90
43581;DHT22;29175;51.030;4.606;2022-09-25T07:31:19;16.00;99.90
43581;DHT22;29175;51.030;4.606;2022-09-25T07:33:46;16.70;99.90
43581;DHT22;29175;51.030;4.606;2022-09-25T07:36:13;17.90;99.90
43581;DHT22;29175;51.030;4.606;2022-09-25T07:38:39;18.90;99.90
43581;DHT22;29175;51.030;4.606;2022-09-25T07:41:08;20.20;99.90
43581;DHT22;29175;51.030;4.606;2022-09-25T07:43:34;20.90;99.90
43581;DHT22;29175;51.030;4.606;2022-09-25T07:46:03;21.80;99.90
43581;DHT22;29175;51.030;4.606;2022-09-25T07:48:29;21.60;99.90
43581;DHT22;29175;51.030;4.606;2022-09-25T07:51:00;21.10;99.90
43581;DHT22;29175;51.030;4.606;2022-09-25T07:53:26;20.70;99.90
43581;DHT22;29175;51.030;4.606;2022-09-25T07:55:55;19.70;99.90
43581;DHT22;29175;51.030;4.606;2022-09-25T07:58:21;19.30;99.90
43581;DHT22;29175;51.030;4.606;2022-09-25T08:00:46;19.90;99.90
43581;DHT22;29175;51.030;4.606;2022-09-25T08:03:12;20.60;99.90
43581;DHT22;29175;51.030;4.606;2022-09-25T08:05:41;21.80;99.90
43581;DHT22;29175;51.030;4.606;2022-09-25T08:08:07;22.50;99.90
43581;DHT22;29175;51.030;4.606;2022-09-25T08:10:34;22.60;98.20
43581;DHT22;29175;51.030;4.606;2022-09-25T08:12:59;22.20;98.80
43581;DHT22;29175;51.030;4.606;2022-09-25T08:15:25;21.40;99.90
43581;DHT22;29175;51.030;4.606;2022-09-25T08:17:51;20.30;99.90
43581;DHT22;29175;51.030;4.606;2022-09-25T08:20:17;19.50;99.90
43581;DHT22;29175;51.030;4.606;2022-09-25T08:22:43;18.60;99.90
43581;DHT22;29175;51.030;4.606;2022-09-25T08:25:08;18.30;99.90
43581;DHT22;29175;51.030;4.606;2022-09-25T08:27:35;18.20;99.90
43581;DHT22;29175;51.030;4.606;2022-09-25T08:30:08;18.00;99.90
43581;DHT22;29175;51.030;4.606;2022-09-25T08:32:34;17.70;99.90
43581;DHT22;29175;51.030;4.606;2022-09-25T08:35:01;17.40;99.90
43581;DHT22;29175;51.030;4.606;2022-09-25T08:37:27;17.20;99.90
43581;DHT22;29175;51.030;4.606;2022-09-25T08:39:53;17.30;99.90
43581;DHT22;29175;51.030;4.606;2022-09-25T08:42:32;17.90;99.90
43581;DHT22;29175;51.030;4.606;2022-09-25T08:45:04;19.60;99.90
43581;DHT22;29175;51.030;4.606;2022-09-25T08:47:51;21.00;99.90
43581;DHT22;29175;51.030;4.606;2022-09-25T08:50:36;22.50;99.80
43581;DHT22;29175;51.030;4.606;2022-09-25T08:53:06;23.80;98.40
43581;DHT22;29175;51.030;4.606;2022-09-25T08:55:36;25.10;95.70
43581;DHT22;29175;51.030;4.606;2022-09-25T08:58:24;25.60;94.80
43581;DHT22;29175;51.030;4.606;2022-09-25T09:00:56;26.50;93.60
43581;DHT22;29175;51.030;4.606;2022-09-25T09:03:24;26.30;92.10
43581;DHT22;29175;51.030;4.606;2022-09-25T09:06:00;27.60;92.20
43581;DHT22;29175;51.030;4.606;2022-09-25T09:08:27;27.60;90.70
43581;DHT22;29175;51.030;4.606;2022-09-25T09:10:58;28.70;89.80
43581;DHT22;29175;51.030;4.606;2022-09-25T09:16:18;28.50;90.10
43581;DHT22;29175;51.030;4.606;2022-09-25T09:18:45;28.60;86.50
43581;DHT22;29175;51.030;4.606;2022-09-25T09:21:36;29.60;87.20
43581;DHT22;29175;51.030;4.606;2022-09-25T09:32:15;24.70;90.60
43581;DHT22;29175;51.030;4.606;2022-09-25T09:40:43;24.00;91.60
43581;DHT22;29175;51.030;4.606;2022-09-25T09:51:57;24.10;91.50
43581;DHT22;29175;51.030;4.606;2022-09-25T09:54:45;23.10;92.00
43581;DHT22;29175;51.030;4.606;2022-09-25T09:59:57;22.00;93.10
43581;DHT22;29175;51.030;4.606;2022-09-25T10:05:27;21.10;94.60
43581;DHT22;29175;51.030;4.606;2022-09-25T10:07:54;20.80;95.70
43581;DHT22;29175;51.030;4.606;2022-09-25T10:10:25;20.40;95.50
43581;DHT22;29175;51.030;4.606;2022-09-25T10:12:53;20.00;95.70
43581;DHT22;29175;51.030;4.606;2022-09-25T10:15:27;20.00;95.30
43581;DHT22;29175;51.030;4.606;2022-09-25T10:17:56;20.20;95.20
43581;DHT22;29175;51.030;4.606;2022-09-25T10:20:23;20.60;95.60
43581;DHT22;29175;51.030;4.606;2022-09-25T10:22:52;21.40;94.20
43581;DHT22;29175;51.030;4.606;2022-09-25T10:25:39;22.00;93.60
43581;DHT22;29175;51.030;4.606;2022-09-25T10:28:25;22.40;92.70
43581;DHT22;29175;51.030;4.606;2022-09-25T10:30:51;21.60;93.80
43581;DHT22;29175;51.030;4.606;2022-09-25T10:33:20;21.00;94.20
43581;DHT22;29175;51.030;4.606;2022-09-25T10:35:47;21.10;94.60
43581;DHT22;29175;51.030;4.606;2022-09-25T10:38:46;20.70;95.10
43581;DHT22;29175;51.030;4.606;2022-09-25T10:41:14;20.60;94.80
43581;DHT22;29175;51.030;4.606;2022-09-25T10:43:55;20.50;95.00
43581;DHT22;29175;51.030;4.606;2022-09-25T10:46:33;20.50;95.40
43581;DHT22;29175;51.030;4.606;2022-09-25T10:49:23;20.30;95.00
43581;DHT22;29175;51.030;4.606;2022-09-25T10:52:12;20.40;96.10
43581;DHT22;29175;51.030;4.606;2022-09-25T10:54:38;20.10;95.80
43581;DHT22;29175;51.030;4.606;2022-09-25T10:59:53;19.40;96.10
43581;DHT22;29175;51.030;4.606;2022-09-25T11:02:39;19.20;97.90
43581;DHT22;29175;51.030;4.606;2022-09-25T11:05:14;19.30;96.00
43581;DHT22;29175;51.030;4.606;2022-09-25T11:07:50;19.60;96.80
43581;DHT22;29175;51.030;4.606;2022-09-25T11:10:25;19.90;96.10
43581;DHT22;29175;51.030;4.606;2022-09-25T11:12:53;20.10;96.00
43581;DHT22;29175;51.030;4.606;2022-09-25T11:15:21;20.20;95.50
43581;DHT22;29175;51.030;4.606;2022-09-25T11:17:51;20.00;94.80
43581;DHT22;29175;51.030;4.606;2022-09-25T11:20:23;19.60;95.10
43581;DHT22;29175;51.030;4.606;2022-09-25T11:23:14;19.40;96.50
43581;DHT22;29175;51.030;4.606;2022-09-25T11:26:00;19.50;97.20
43581;DHT22;29175;51.030;4.606;2022-09-25T11:28:38;19.10;97.20
43581;DHT22;29175;51.030;4.606;2022-09-25T11:31:20;19.20;97.00
43581;DHT22;29175;51.030;4.606;2022-09-25T11:34:32;19.40;96.90
43581;DHT22;29175;51.030;4.606;2022-09-25T11:37:25;19.30;96.10
43581;DHT22;29175;51.030;4.606;2022-09-25T11:43:05;19.60;96.30
43581;DHT22;29175;51.030;4.606;2022-09-25T11:45:41;19.40;95.30
43581;DHT22;29175;51.030;4.606;2022-09-25T11:48:25;19.70;95.90
43581;DHT22;29175;51.030;4.606;2022-09-25T12:01:56;20.30;94.80
43581;DHT22;29175;51.030;4.606;2022-09-25T12:10:22;20.50;95.10
43581;DHT22;29175;51.030;4.606;2022-09-25T12:13:00;20.90;94.10
43581;DHT22;29175;51.030;4.606;2022-09-25T12:20:48;20.60;93.00
43581;DHT22;29175;51.030;4.606;2022-09-25T12:23:35;20.50;94.30
43581;DHT22;29175;51.030;4.606;2022-09-25T12:39:45;20.40;95.20
43581;DHT22;29175;51.030;4.606;2022-09-25T12:42:20;20.20;94.90
43581;DHT22;29175;51.030;4.606;2022-09-25T12:47:44;20.00;96.80
43581;DHT22;29175;51.030;4.606;2022-09-25T12:50:18;19.90;96.10
43581;DHT22;29175;51.030;4.606;2022-09-25T12:52:54;20.10;96.10
43581;DHT22;29175;51.030;4.606;2022-09-25T13:06:55;20.20;95.60
43581;DHT22;29175;51.030;4.606;2022-09-25T13:09:29;20.50;95.80
43581;DHT22;29175;51.030;4.606;2022-09-25T13:12:08;20.40;93.90
43581;DHT22;29175;51.030;4.606;2022-09-25T13:14:38;20.60;93.50
43581;DHT22;29175;51.030;4.606;2022-09-25T13:17:10;20.70;93.20
43581;DHT22;29175;51.030;4.606;2022-09-25T13:19:36;20.70;93.10
43581;DHT22;29175;51.030;4.606;2022-09-25T13:24:38;20.80;93.60
43581;DHT22;29175;51.030;4.606;2022-09-25T13:27:14;20.40;94.00
43581;DHT22;29175;51.030;4.606;2022-09-25T13:29:41;19.90;94.30
43581;DHT22;29175;51.030;4.606;2022-09-25T13:32:17;19.60;94.10
43581;DHT22;29175;51.030;4.606;2022-09-25T13:34:44;19.10;94.40
43581;DHT22;29175;51.030;4.606;2022-09-25T13:37:12;19.00;95.30
43581;DHT22;29175;51.030;4.606;2022-09-25T13:39:48;18.90;95.30
43581;DHT22;29175;51.030;4.606;2022-09-25T13:42:33;19.40;96.30
43581;DHT22;29175;51.030;4.606;2022-09-25T13:47:42;19.60;95.70
43581;DHT22;29175;51.030;4.606;2022-09-25T14:03:01;19.60;94.70
43581;DHT22;29175;51.030;4.606;2022-09-25T14:05:30;19.40;95.10
43581;DHT22;29175;51.030;4.606;2022-09-25T14:08:13;19.30;96.20
43581;DHT22;29175;51.030;4.606;2022-09-25T14:10:46;19.10;95.80
43581;DHT22;29175;51.030;4.606;2022-09-25T14:13:13;19.10;94.70
43581;DHT22;29175;51.030;4.606;2022-09-25T14:15:41;19.30;94.00
43581;DHT22;29175;51.030;4.606;2022-09-25T14:18:36;19.70;93.60
43581;DHT22;29175;51.030;4.606;2022-09-25T14:21:04;19.80;93.30
43581;DHT22;29175;51.030;4.606;2022-09-25T14:23:52;19.70;92.60
43581;DHT22;29175;51.030;4.606;2022-09-25T14:26:20;19.40;92.50
43581;DHT22;29175;51.030;4.606;2022-09-25T14:28:48;19.20;92.70
43581;DHT22;29175;51.030;4.606;2022-09-25T14:31:33;19.30;94.30
43581;DHT22;29175;51.030;4.606;2022-09-25T14:40:29;20.10;92.60
43581;DHT22;29175;51.030;4.606;2022-09-25T14:46:04;20.30;92.60
43581;DHT22;29175;51.030;4.606;2022-09-25T14:48:44;20.20;92.10
43581;DHT22;29175;51.030;4.606;2022-09-25T14:51:35;20.20;93.00
43581;DHT22;29175;51.030;4.606;2022-09-25T14:54:06;20.40;94.50
43581;DHT22;29175;51.030;4.606;2022-09-25T14:56:33;20.40;92.40
43581;DHT22;29175;51.030;4.606;2022-09-25T14:59:06;20.40;92.40
43581;DHT22;29175;51.030;4.606;2022-09-25T15:01:35;20.40;92.90
43581;DHT22;29175;51.030;4.606;2022-09-25T15:04:07;20.60;93.40
43581;DHT22;29175;51.030;4.606;2022-09-25T15:06:35;21.20;91.60
43581;DHT22;29175;51.030;4.606;2022-09-25T15:09:16;21.50;91.80
43581;DHT22;29175;51.030;4.606;2022-09-25T15:11:42;21.60;91.10
43581;DHT22;29175;51.030;4.606;2022-09-25T15:14:12;21.20;91.80
43581;DHT22;29175;51.030;4.606;2022-09-25T15:16:41;20.50;92.50
43581;DHT22;29175;51.030;4.606;2022-09-25T15:19:32;20.70;93.20
43581;DHT22;29175;51.030;4.606;2022-09-25T15:21:59;20.90;93.30
43581;DHT22;29175;51.030;4.606;2022-09-25T15:24:29;20.50;93.60
43581;DHT22;29175;51.030;4.606;2022-09-25T15:27:04;20.70;93.30
43581;DHT22;29175;51.030;4.606;2022-09-25T15:29:36;20.60;92.60
43581;DHT22;29175;51.030;4.606;2022-09-25T15:32:03;20.60;92.90
43581;DHT22;29175;51.030;4.606;2022-09-25T15:34:30;20.40;93.00
43581;DHT22;29175;51.030;4.606;2022-09-25T15:37:21;20.10;94.00
43581;DHT22;29175;51.030;4.606;2022-09-25T15:39:52;20.20;94.10
43581;DHT22;29175;51.030;4.606;2022-09-25T15:42:18;19.90;93.90
43581;DHT22;29175;51.030;4.606;2022-09-25T15:44:45;19.70;95.10
43581;DHT22;29175;51.030;4.606;2022-09-25T15:49:56;19.50;95.30
43581;DHT22;29175;51.030;4.606;2022-09-25T15:52:27;19.70;95.60
43581;DHT22;29175;51.030;4.606;2022-09-25T15:55:02;19.90;95.80
43581;DHT22;29175;51.030;4.606;2022-09-25T15:57:31;19.90;95.80
43581;DHT22;29175;51.030;4.606;2022-09-25T15:59:58;19.90;96.30
43581;DHT22;29175;51.030;4.606;2022-09-25T16:02:58;20.00;96.40
43581;DHT22;29175;51.030;4.606;2022-09-25T16:05:45;19.90;96.20
43581;DHT22;29175;51.030;4.606;2022-09-25T16:08:26;19.50;96.10
43581;DHT22;29175;51.030;4.606;2022-09-25T16:11:22;19.40;96.00
43581;DHT22;29175;51.030;4.606;2022-09-25T16:13:51;19.40;95.10
43581;DHT22;29175;51.030;4.606;2022-09-25T16:16:24;19.50;95.80
43581;DHT22;29175;51.030;4.606;2022-09-25T16:18:57;19.70;96.30
43581;DHT22;29175;51.030;4.606;2022-09-25T16:21:37;19.60;95.50
43581;DHT22;29175;51.030;4.606;2022-09-25T16:24:06;19.80;95.40
43581;DHT22;29175;51.030;4.606;2022-09-25T16:26:42;19.70;95.50
43581;DHT22;29175;51.030;4.606;2022-09-25T16:31:41;20.10;94.40
43581;DHT22;29175;51.030;4.606;2022-09-25T16:34:34;20.00;94.90
43581;DHT22;29175;51.030;4.606;2022-09-25T16:37:02;19.90;94.10
43581;DHT22;29175;51.030;4.606;2022-09-25T16:39:34;19.70;95.10
43581;DHT22;29175;51.030;4.606;2022-09-25T16:42:38;19.60;94.70
43581;DHT22;29175;51.030;4.606;2022-09-25T16:45:25;19.60;95.60
43581;DHT22;29175;51.030;4.606;2022-09-25T16:47:56;19.50;95.60
43581;DHT22;29175;51.030;4.606;2022-09-25T16:50:26;19.00;96.30
43581;DHT22;29175;51.030;4.606;2022-09-25T16:52:52;19.00;97.10
43581;DHT22;29175;51.030;4.606;2022-09-25T16:55:23;18.90;96.70
43581;DHT22;29175;51.030;4.606;2022-09-25T16:57:50;18.90;97.10
43581;DHT22;29175;51.030;4.606;2022-09-25T17:00:26;18.70;97.60
43581;DHT22;29175;51.030;4.606;2022-09-25T17:02:52;18.80;97.70
43581;DHT22;29175;51.030;4.606;2022-09-25T17:05:24;18.70;98.00
43581;DHT22;29175;51.030;4.606;2022-09-25T17:07:55;18.70;98.10
43581;DHT22;29175;51.030;4.606;2022-09-25T17:10:27;18.60;98.80
43581;DHT22;29175;51.030;4.606;2022-09-25T17:12:59;18.50;99.10
43581;DHT22;29175;51.030;4.606;2022-09-25T17:15:32;18.60;98.30
43581;DHT22;29175;51.030;4.606;2022-09-25T17:17:59;18.30;97.90
43581;DHT22;29175;51.030;4.606;2022-09-25T17:20:27;18.10;98.60
43581;DHT22;29175;51.030;4.606;2022-09-25T17:22:57;18.00;98.90
43581;DHT22;29175;51.030;4.606;2022-09-25T17:25:39;18.10;99.10
43581;DHT22;29175;51.030;4.606;2022-09-25T17:28:07;18.10;99.00
43581;DHT22;29175;51.030;4.606;2022-09-25T17:30:33;17.80;99.30
43581;DHT22;29175;51.030;4.606;2022-09-25T17:32:59;17.70;99.70
43581;DHT22;29175;51.030;4.606;2022-09-25T17:35:39;17.60;99.90
43581;DHT22;29175;51.030;4.606;2022-09-25T17:38:06;17.60;99.80
43581;DHT22;29175;51.030;4.606;2022-09-25T17:40:32;17.70;99.90
43581;DHT22;29175;51.030;4.606;2022-09-25T17:42:58;17.70;99.90
43581;DHT22;29175;51.030;4.606;2022-09-25T17:45:28;17.70;99.90
43581;DHT22;29175;51.030;4.606;2022-09-25T17:47:57;17.70;99.90
43581;DHT22;29175;51.030;4.606;2022-09-25T17:50:23;17.60;99.90
43581;DHT22;29175;51.030;4.606;2022-09-25T17:52:50;17.60;99.90
43581;DHT22;29175;51.030;4.606;2022-09-25T17:55:18;17.60;99.90
43581;DHT22;29175;51.030;4.606;2022-09-25T17:57:45;17.60;99.90
43581;DHT22;29175;51.030;4.606;2022-09-25T18:00:12;17.40;99.90
43581;DHT22;29175;51.030;4.606;2022-09-25T18:02:38;17.40;99.90
43581;DHT22;29175;51.030;4.606;2022-09-25T18:05:04;17.60;99.90
43581;DHT22;29175;51.030;4.606;2022-09-25T18:07:30;17.40;99.90
43581;DHT22;29175;51.030;4.606;2022-09-25T18:09:56;17.40;99.90
43581;DHT22;29175;51.030;4.606;2022-09-25T18:12:22;17.40;99.90
43581;DHT22;29175;51.030;4.606;2022-09-25T18:14:48;17.20;99.90
43581;DHT22;29175;51.030;4.606;2022-09-25T18:17:15;17.20;99.90
43581;DHT22;29175;51.030;4.606;2022-09-25T18:19:42;17.10;99.90
43581;DHT22;29175;51.030;4.606;2022-09-25T18:22:26;17.00;99.90
43581;DHT22;29175;51.030;4.606;2022-09-25T18:24:53;16.90;99.90